Fleming Island, Florida
Current Conditions -  °F | °C
As of 12:53 PM on Saturday 20 Dec 2014 (Local Time) from KNIP Reporting Station
Broken Clouds Broken Clouds  
Wind Chill: 68°   Ceiling: 10000
Heat Index: 68°   Visibility: 10mi
Dew Point: 48°   Wind: 6mph
Humidity: 49%   Direction: 40°NE
Pressure: 30.11"   Gusts: NA
Location:  30.1°N, 81.71°W
Report Text: KNIP 201753Z 04005KT 10SM FEW035 BKN100 20/09 A3011 RMK AO2 SLP192 T02000089 10206 20150 58017
Loading
Personal Weather Stations






























Interactive Weather Map New forecast layout! Learn more

10-Day Weather Forecast

Advertisements
Track Severe Weather on mobile